Flight Track Log - Related Links

Times and Time Zones

All times are in EDT time to prevent confusion due to time zone crossing. See the POE428 flight status page for this flight to view local times or setup timezone preferences in your user account.

Time Position Orientation Groundspeed Altitude Reporting Facility
EDT Latitude Longitude Course Direction KTS MPH feet Rate Location/Type
Sun 08:19:04 PM 45.4500 -73.8000 264° West 140 161 2,400  Level Montreal Center
Sun 08:23:52 PM 45.4167 -74.2167 270° West 270 311 11,500 1,879 Climbing Toronto Center
Sun 08:24:52 PM 45.4167 -74.3333 235° Southwest 270 311 13,300 1,950 Climbing Toronto Center
Sun 08:25:52 PM 45.3667 -74.4333 235° Southwest 270 311 15,400 1,750 Climbing Toronto Center
Sun 08:26:52 PM 45.3333 -74.5000 245° Southwest 260 299 16,800 1,450 Climbing Toronto Center
Sun 08:27:52 PM 45.3000 -74.6000 245° Southwest 270 311 18,300 1,350 Climbing Toronto Center
Sun 08:28:52 PM 45.2667 -74.7000 257° West 270 311 19,500 1,250 Climbing Toronto Center
Sun 08:29:52 PM 45.2500 -74.8000 245° Southwest 270 311 20,800 1,200 Climbing Toronto Center
Sun 08:30:52 PM 45.2167 -74.9000 235° Southwest 270 311 21,900 600 Climbing Toronto Center
Sun 08:31:52 PM 45.1667 -75.0000 248° West 290 334 22,000 50 Climbing Toronto Center
Sun 08:32:52 PM 45.1333 -75.1167 248° West 310 357 22,000  Level Toronto Center
Sun 08:33:52 PM 45.1000 -75.2333 242° Southwest 330 380 22,000  Level Toronto Center
Sun 08:34:52 PM 45.0500 -75.3667 239° Southwest 330 380 22,000  Level Toronto Center
Sun 08:35:52 PM 45.0000 -75.4833 257° West 340 391 22,000  Level Toronto Center
Sun 08:36:52 PM 44.9833 -75.5833 239° Southwest 340 391 22,000  Level Toronto Center
Sun 08:37:52 PM 44.9333 -75.7000 239° Southwest 340 391 22,000  Level Toronto Center
Sun 08:38:52 PM 44.8833 -75.8167 239° Southwest 340 391 22,000  Level Toronto Center
Sun 08:39:52 PM 44.8333 -75.9333 251° West 340 391 22,000  Level Toronto Center
Sun 08:40:52 PM 44.8000 -76.0667 248° West 340 391 22,000  Level Toronto Center
Sun 08:41:52 PM 44.7667 -76.1833 227° Southwest 340 391 22,000  Level Toronto Center
Sun 08:42:52 PM 44.7000 -76.2833 227° Southwest 340 391 22,000  Level Toronto Center
Sun 08:43:52 PM 44.6333 -76.3833 215° Southwest 350 403 22,000  Level Toronto Center
Sun 08:44:52 PM 44.5500 -76.4667 227° Southwest 350 403 22,000  Level Toronto Center
Sun 08:45:52 PM 44.4833 -76.5667 235° Southwest 350 403 22,000  Level Toronto Center
Sun 08:46:52 PM 44.4333 -76.6667 227° Southwest 350 403 22,000  Level Toronto Center
Sun 08:47:52 PM 44.3667 -76.7667 221° Southwest 350 403 22,000  Level Toronto Center
Sun 08:48:52 PM 44.2833 -76.8667 222° Southwest 350 403 22,000  Level Toronto Center
Sun 08:49:52 PM 44.2167 -76.9500 227° Southwest 350 403 22,000  Level Toronto Center
Sun 08:50:52 PM 44.1500 -77.0500 227° Southwest 350 403 22,000  Level Toronto Center
Sun 08:51:52 PM 44.0833 -77.1500 221° Southwest 350 403 22,000  Level Toronto Center
Sun 08:52:52 PM 44.0000 -77.2500 222° Southwest 350 403 22,000  Level Toronto Center
Sun 08:53:52 PM 43.9333 -77.3333 259° West 350 403 22,000  Level Toronto Center
Sun 08:54:52 PM 43.9167 -77.4500 248° West 340 391 22,000  Level Toronto Center
Sun 08:55:52 PM 43.8833 -77.5667 248° West 340 391 22,000 -150 Level Toronto Center
Sun 08:56:52 PM 43.8500 -77.6833 253° West 340 391 21,700 -750 Descending Toronto Center
Sun 08:57:52 PM 43.8167 -77.8333 248° West 350 403 20,500 -1,150 Descending Toronto Center
Sun 08:58:52 PM 43.7833 -77.9500 251° West 350 403 19,400 -1,550 Descending Toronto Center
Sun 08:59:52 PM 43.7500 -78.0833 248° West 350 403 17,400 -2,050 Descending Toronto Center
Sun 09:00:52 PM 43.7167 -78.2000 259° West 350 403 15,300 -1,900 Descending Toronto Center
Sun 09:01:52 PM 43.7000 -78.3167 260° West 340 391 13,600 -1,750 Descending Toronto Center
Sun 09:02:52 PM 43.6833 -78.4500 281° West 310 357 11,800 -1,650 Descending Toronto Center
Sun 09:03:52 PM 43.7000 -78.5667 257° West 310 357 10,300 -1,450 Descending Toronto Center
Sun 09:04:52 PM 43.6833 -78.6667 270° West 280 322 8,900 -1,450 Descending Toronto Center
Sun 09:05:52 PM 43.6833 -78.7833 255° West 260 299 7,400 -1,400 Descending Toronto Center
Sun 09:06:52 PM 43.6667 -78.8667 270° West 260 299 6,100 -1,200 Descending Toronto Center
Sun 09:07:52 PM 43.6667 -78.9667 255° West 250 288 5,000 -1,000 Descending Toronto Center
Sun 09:08:52 PM 43.6500 -79.0500 257° West 240 276 4,100 -950 Descending Toronto Center
Sun 09:09:52 PM 43.6333 -79.1500 270° West 240 276 3,100 -1,050 Descending Toronto Center
Sun 09:10:52 PM 43.6333 -79.2333 270° West 250 288 2,000 -850 Descending Toronto Center
Sun 09:11:52 PM 43.6333 -79.3167 235° Southwest 210 242 1,400 -800 Descending Toronto Center
Sun 09:12:52 PM 43.6167 -79.3500 235° Southwest 130 150 400 -1,000 Descending Toronto Center

Login

Don't have an account? Register now (free) for customized features, flight alerts, and more!